sensor_id;sensor_type;location;lat;lon;timestamp;pressure;altitude;pressure_sealevel;temperature;humidity
54389;BME280;40975;50.390;8.640;2024-03-06T00:01:42;99163.47;;;5.34;100.00
54389;BME280;40975;50.390;8.640;2024-03-06T00:04:07;99164.19;;;5.36;100.00
54389;BME280;40975;50.390;8.640;2024-03-06T00:06:32;99168.00;;;5.32;100.00
54389;BME280;40975;50.390;8.640;2024-03-06T00:08:58;99166.53;;;5.27;100.00
54389;BME280;40975;50.390;8.640;2024-03-06T00:11:23;99166.88;;;5.23;100.00
54389;BME280;40975;50.390;8.640;2024-03-06T00:13:48;99163.84;;;5.16;100.00
54389;BME280;40975;50.390;8.640;2024-03-06T00:16:14;99169.72;;;5.20;100.00
54389;BME280;40975;50.390;8.640;2024-03-06T00:18:39;99174.03;;;5.21;100.00
54389;BME280;40975;50.390;8.640;2024-03-06T00:21:05;99174.78;;;5.23;100.00
54389;BME280;40975;50.390;8.640;2024-03-06T00:23:30;99175.22;;;5.17;100.00
54389;BME280;40975;50.390;8.640;2024-03-06T00:25:56;99179.75;;;5.14;100.00
54389;BME280;40975;50.390;8.640;2024-03-06T00:28:23;99175.66;;;5.10;100.00
54389;BME280;40975;50.390;8.640;2024-03-06T00:30:49;99185.34;;;5.10;100.00
54389;BME280;40975;50.390;8.640;2024-03-06T00:33:15;99194.19;;;5.09;100.00
54389;BME280;40975;50.390;8.640;2024-03-06T00:35:40;99201.88;;;5.12;100.00
54389;BME280;40975;50.390;8.640;2024-03-06T00:38:05;99198.03;;;5.16;100.00
54389;BME280;40975;50.390;8.640;2024-03-06T00:40:31;99198.78;;;5.18;100.00
54389;BME280;40975;50.390;8.640;2024-03-06T00:42:57;99198.03;;;5.16;100.00
54389;BME280;40975;50.390;8.640;2024-03-06T00:45:22;99211.44;;;5.13;100.00
54389;BME280;40975;50.390;8.640;2024-03-06T00:47:48;99207.75;;;5.16;100.00
54389;BME280;40975;50.390;8.640;2024-03-06T00:50:13;99210.38;;;5.16;100.00
54389;BME280;40975;50.390;8.640;2024-03-06T00:52:38;99213.63;;;5.19;100.00
54389;BME280;40975;50.390;8.640;2024-03-06T00:55:04;99214.38;;;5.21;100.00
54389;BME280;40975;50.390;8.640;2024-03-06T00:57:30;99205.00;;;5.17;100.00
54389;BME280;40975;50.390;8.640;2024-03-06T00:59:56;99213.75;;;5.18;100.00
54389;BME280;40975;50.390;8.640;2024-03-06T01:02:21;99210.38;;;5.16;100.00
54389;BME280;40975;50.390;8.640;2024-03-06T01:04:46;99214.56;;;5.18;100.00
54389;BME280;40975;50.390;8.640;2024-03-06T01:07:12;99214.69;;;5.17;100.00
54389;BME280;40975;50.390;8.640;2024-03-06T01:09:37;99219.34;;;5.13;100.00
54389;BME280;40975;50.390;8.640;2024-03-06T01:12:02;99224.59;;;5.13;100.00
54389;BME280;40975;50.390;8.640;2024-03-06T01:14:28;99225.75;;;5.09;100.00
54389;BME280;40975;50.390;8.640;2024-03-06T01:16:53;99216.78;;;5.11;100.00
54389;BME280;40975;50.390;8.640;2024-03-06T01:19:18;99228.91;;;5.14;100.00
54389;BME280;40975;50.390;8.640;2024-03-06T01:21:44;99223.53;;;5.16;100.00
54389;BME280;40975;50.390;8.640;2024-03-06T01:24:09;99226.03;;;5.17;100.00
54389;BME280;40975;50.390;8.640;2024-03-06T01:26:34;99224.47;;;5.14;100.00
54389;BME280;40975;50.390;8.640;2024-03-06T01:29:00;99228.78;;;5.16;100.00
54389;BME280;40975;50.390;8.640;2024-03-06T01:31:25;99232.25;;;5.16;100.00
54389;BME280;40975;50.390;8.640;2024-03-06T01:33:50;99230.47;;;5.17;100.00
54389;BME280;40975;50.390;8.640;2024-03-06T01:36:16;99233.19;;;5.15;100.00
54389;BME280;40975;50.390;8.640;2024-03-06T01:38:41;99237.53;;;5.16;100.00
54389;BME280;40975;50.390;8.640;2024-03-06T01:41:06;99245.31;;;5.18;100.00
54389;BME280;40975;50.390;8.640;2024-03-06T01:43:37;99244.69;;;5.14;100.00
54389;BME280;40975;50.390;8.640;2024-03-06T01:46:06;99245.75;;;5.11;100.00
54389;BME280;40975;50.390;8.640;2024-03-06T01:48:32;99251.63;;;5.15;100.00
54389;BME280;40975;50.390;8.640;2024-03-06T01:51:00;99251.63;;;5.15;100.00
54389;BME280;40975;50.390;8.640;2024-03-06T01:53:28;99245.84;;;5.10;100.00
54389;BME280;40975;50.390;8.640;2024-03-06T01:55:55;99233.03;;;5.05;100.00
54389;BME280;40975;50.390;8.640;2024-03-06T01:58:20;99238.09;;;5.08;100.00
54389;BME280;40975;50.390;8.640;2024-03-06T02:00:49;99236.72;;;5.03;100.00
54389;BME280;40975;50.390;8.640;2024-03-06T02:03:15;99239.34;;;5.03;100.00
54389;BME280;40975;50.390;8.640;2024-03-06T02:05:41;99236.94;;;5.00;100.00
54389;BME280;40975;50.390;8.640;2024-03-06T02:08:07;99237.47;;;4.92;100.00
54389;BME280;40975;50.390;8.640;2024-03-06T02:10:33;99235.16;;;4.87;100.00
54389;BME280;40975;50.390;8.640;2024-03-06T02:12:59;99229.59;;;4.79;100.00
54389;BME280;40975;50.390;8.640;2024-03-06T02:15:25;99232.97;;;4.68;100.00
54389;BME280;40975;50.390;8.640;2024-03-06T02:17:51;99237.59;;;4.64;100.00
54389;BME280;40975;50.390;8.640;2024-03-06T02:20:22;99230.00;;;4.60;100.00
54389;BME280;40975;50.390;8.640;2024-03-06T02:22:47;99235.59;;;4.55;100.00
54389;BME280;40975;50.390;8.640;2024-03-06T02:25:12;99240.13;;;4.53;100.00
54389;BME280;40975;50.390;8.640;2024-03-06T02:27:40;99238.66;;;4.49;100.00
54389;BME280;40975;50.390;8.640;2024-03-06T02:30:06;99238.53;;;4.50;100.00
54389;BME280;40975;50.390;8.640;2024-03-06T02:32:31;99240.44;;;4.48;100.00
54389;BME280;40975;50.390;8.640;2024-03-06T02:34:56;99237.16;;;4.45;100.00
54389;BME280;40975;50.390;8.640;2024-03-06T02:37:22;99235.50;;;4.44;100.00
54389;BME280;40975;50.390;8.640;2024-03-06T02:39:48;99242.66;;;4.42;100.00
54389;BME280;40975;50.390;8.640;2024-03-06T02:42:13;99246.22;;;4.41;100.00
54389;BME280;40975;50.390;8.640;2024-03-06T02:44:39;99248.72;;;4.42;100.00
54389;BME280;40975;50.390;8.640;2024-03-06T02:47:04;99250.72;;;4.39;100.00
54389;BME280;40975;50.390;8.640;2024-03-06T02:49:29;99255.69;;;4.43;100.00
54389;BME280;40975;50.390;8.640;2024-03-06T02:51:55;99249.47;;;4.44;100.00
54389;BME280;40975;50.390;8.640;2024-03-06T02:54:20;99254.41;;;4.49;100.00
54389;BME280;40975;50.390;8.640;2024-03-06T02:56:45;99263.88;;;4.51;100.00
54389;BME280;40975;50.390;8.640;2024-03-06T02:59:11;99259.47;;;4.52;100.00
54389;BME280;40975;50.390;8.640;2024-03-06T03:01:36;99259.56;;;4.50;100.00
54389;BME280;40975;50.390;8.640;2024-03-06T03:04:01;99265.56;;;4.53;100.00
54389;BME280;40975;50.390;8.640;2024-03-06T03:06:27;99265.75;;;4.49;100.00
54389;BME280;40975;50.390;8.640;2024-03-06T03:08:54;99258.31;;;4.43;100.00
54389;BME280;40975;50.390;8.640;2024-03-06T03:11:19;99259.25;;;4.42;100.00
54389;BME280;40975;50.390;8.640;2024-03-06T03:13:45;99262.19;;;4.38;100.00
54389;BME280;40975;50.390;8.640;2024-03-06T03:16:19;99262.69;;;4.30;100.00
54389;BME280;40975;50.390;8.640;2024-03-06T03:18:46;99256.72;;;4.28;100.00
54389;BME280;40975;50.390;8.640;2024-03-06T03:21:12;99257.34;;;4.31;100.00
54389;BME280;40975;50.390;8.640;2024-03-06T03:23:38;99263.56;;;4.30;100.00
54389;BME280;40975;50.390;8.640;2024-03-06T03:26:04;99253.97;;;4.29;100.00
54389;BME280;40975;50.390;8.640;2024-03-06T03:28:30;99260.19;;;4.28;100.00
54389;BME280;40975;50.390;8.640;2024-03-06T03:30:55;99265.75;;;4.24;100.00
54389;BME280;40975;50.390;8.640;2024-03-06T03:33:22;99262.91;;;4.14;100.00
54389;BME280;40975;50.390;8.640;2024-03-06T03:35:47;99269.09;;;4.13;100.00
54389;BME280;40975;50.390;8.640;2024-03-06T03:38:13;99276.97;;;4.13;100.00
54389;BME280;40975;50.390;8.640;2024-03-06T03:40:38;99264.56;;;4.15;100.00
54389;BME280;40975;50.390;8.640;2024-03-06T03:43:03;99261.84;;;4.16;100.00
54389;BME280;40975;50.390;8.640;2024-03-06T03:45:32;99264.56;;;4.15;100.00
54389;BME280;40975;50.390;8.640;2024-03-06T03:47:59;99262.91;;;4.14;100.00
54389;BME280;40975;50.390;8.640;2024-03-06T03:50:25;99262.25;;;4.10;100.00
54389;BME280;40975;50.390;8.640;2024-03-06T03:52:50;99271.38;;;4.04;100.00
54389;BME280;40975;50.390;8.640;2024-03-06T03:55:15;99267.91;;;4.04;100.00
54389;BME280;40975;50.390;8.640;2024-03-06T03:57:41;99272.41;;;4.02;100.00
54389;BME280;40975;50.390;8.640;2024-03-06T04:00:06;99271.47;;;4.03;100.00
54389;BME280;40975;50.390;8.640;2024-03-06T04:02:37;99268.63;;;3.93;100.00
54389;BME280;40975;50.390;8.640;2024-03-06T04:05:03;99264.31;;;3.92;100.00
54389;BME280;40975;50.390;8.640;2024-03-06T04:07:30;99261.44;;;3.82;100.00
54389;BME280;40975;50.390;8.640;2024-03-06T04:09:55;99277.00;;;3.85;100.00
54389;BME280;40975;50.390;8.640;2024-03-06T04:12:20;99281.50;;;3.83;100.00
54389;BME280;40975;50.390;8.640;2024-03-06T04:14:45;99285.00;;;3.84;100.00
54389;BME280;40975;50.390;8.640;2024-03-06T04:17:11;99277.13;;;3.84;100.00
54389;BME280;40975;50.390;8.640;2024-03-06T04:19:36;99289.28;;;3.85;100.00
54389;BME280;40975;50.390;8.640;2024-03-06T04:22:02;99284.78;;;3.87;100.00
54389;BME280;40975;50.390;8.640;2024-03-06T04:24:27;99293.50;;;3.87;100.00
54389;BME280;40975;50.390;8.640;2024-03-06T04:26:53;99297.69;;;3.90;100.00
54389;BME280;40975;50.390;8.640;2024-03-06T04:29:18;99299.47;;;3.89;100.00
54389;BME280;40975;50.390;8.640;2024-03-06T04:31:43;99304.47;;;3.94;100.00
54389;BME280;40975;50.390;8.640;2024-03-06T04:34:09;99305.72;;;4.01;100.00
54389;BME280;40975;50.390;8.640;2024-03-06T04:36:34;99296.91;;;4.02;100.00
54389;BME280;40975;50.390;8.640;2024-03-06T04:38:59;99311.22;;;4.11;100.00
54389;BME280;40975;50.390;8.640;2024-03-06T04:41:25;99306.69;;;4.13;100.00
54389;BME280;40975;50.390;8.640;2024-03-06T04:43:50;99310.91;;;4.16;100.00
54389;BME280;40975;50.390;8.640;2024-03-06T04:46:17;99314.47;;;4.15;100.00
54389;BME280;40975;50.390;8.640;2024-03-06T04:48:42;99312.91;;;4.12;100.00
54389;BME280;40975;50.390;8.640;2024-03-06T04:51:07;99314.13;;;4.07;100.00
54389;BME280;40975;50.390;8.640;2024-03-06T04:53:35;99317.69;;;4.05;100.00
54389;BME280;40975;50.390;8.640;2024-03-06T04:56:00;99317.50;;;4.09;100.00
54389;BME280;40975;50.390;8.640;2024-03-06T04:58:25;99314.78;;;4.10;100.00
54389;BME280;40975;50.390;8.640;2024-03-06T05:00:51;99318.06;;;4.14;100.00
54389;BME280;40975;50.390;8.640;2024-03-06T05:03:16;99317.97;;;4.15;100.00
54389;BME280;40975;50.390;8.640;2024-03-06T05:05:41;99317.03;;;4.16;100.00
54389;BME280;40975;50.390;8.640;2024-03-06T05:08:07;99317.84;;;4.17;100.00
54389;BME280;40975;50.390;8.640;2024-03-06T05:10:32;99317.03;;;4.16;100.00
54389;BME280;40975;50.390;8.640;2024-03-06T05:12:57;99326.66;;;4.16;100.00
54389;BME280;40975;50.390;8.640;2024-03-06T05:15:23;99331.91;;;4.16;100.00
54389;BME280;40975;50.390;8.640;2024-03-06T05:17:48;99330.47;;;4.12;100.00
54389;BME280;40975;50.390;8.640;2024-03-06T05:20:14;99335.16;;;4.07;100.00
54389;BME280;40975;50.390;8.640;2024-03-06T05:22:39;99328.50;;;4.01;100.00
54389;BME280;40975;50.390;8.640;2024-03-06T05:25:04;99340.06;;;3.98;100.00
54389;BME280;40975;50.390;8.640;2024-03-06T05:27:30;99333.59;;;3.89;100.00
54389;BME280;40975;50.390;8.640;2024-03-06T05:29:57;99354.19;;;3.83;100.00
54389;BME280;40975;50.390;8.640;2024-03-06T05:32:22;99357.66;;;3.83;100.00
54389;BME280;40975;50.390;8.640;2024-03-06T05:34:47;99358.41;;;3.85;100.00
54389;BME280;40975;50.390;8.640;2024-03-06T05:37:13;99362.00;;;3.97;100.00
54389;BME280;40975;50.390;8.640;2024-03-06T05:39:38;99361.94;;;3.99;100.00
54389;BME280;40975;50.390;8.640;2024-03-06T05:42:04;99370.03;;;4.09;100.00
54389;BME280;40975;50.390;8.640;2024-03-06T05:44:33;99368.69;;;4.16;100.00
54389;BME280;40975;50.390;8.640;2024-03-06T05:47:00;99376.69;;;4.14;100.00
54389;BME280;40975;50.390;8.640;2024-03-06T05:49:26;99382.06;;;4.13;100.00
54389;BME280;40975;50.390;8.640;2024-03-06T05:51:52;99388.31;;;4.10;100.00
54389;BME280;40975;50.390;8.640;2024-03-06T05:54:18;99393.50;;;4.12;100.00
54389;BME280;40975;50.390;8.640;2024-03-06T05:56:44;99389.19;;;4.11;100.00
54389;BME280;40975;50.390;8.640;2024-03-06T05:59:09;99392.75;;;4.10;100.00
54389;BME280;40975;50.390;8.640;2024-03-06T06:01:35;99396.50;;;4.05;100.00
54389;BME280;40975;50.390;8.640;2024-03-06T06:04:01;99393.97;;;4.04;100.00
54389;BME280;40975;50.390;8.640;2024-03-06T06:06:26;99402.97;;;4.00;100.00
54389;BME280;40975;50.390;8.640;2024-03-06T06:08:51;99402.97;;;4.00;100.00
54389;BME280;40975;50.390;8.640;2024-03-06T06:11:17;99405.19;;;3.93;100.00
54389;BME280;40975;50.390;8.640;2024-03-06T06:13:42;99405.56;;;3.87;100.00
54389;BME280;40975;50.390;8.640;2024-03-06T06:16:07;99410.50;;;3.92;100.00
54389;BME280;40975;50.390;8.640;2024-03-06T06:18:33;99417.91;;;3.99;100.00
54389;BME280;40975;50.390;8.640;2024-03-06T06:20:59;99406.94;;;3.93;100.00
54389;BME280;40975;50.390;8.640;2024-03-06T06:23:24;99420.66;;;3.98;100.00
54389;BME280;40975;50.390;8.640;2024-03-06T06:25:50;99421.47;;;3.98;100.00
54389;BME280;40975;50.390;8.640;2024-03-06T06:28:15;99426.53;;;4.01;100.00
54389;BME280;40975;50.390;8.640;2024-03-06T06:30:41;99431.81;;;4.01;100.00
54389;BME280;40975;50.390;8.640;2024-03-06T06:33:07;99439.69;;;4.01;100.00
54389;BME280;40975;50.390;8.640;2024-03-06T06:35:33;99437.69;;;4.05;100.00
54389;BME280;40975;50.390;8.640;2024-03-06T06:38:00;99440.72;;;3.99;100.00
54389;BME280;40975;50.390;8.640;2024-03-06T06:40:25;99451.22;;;3.99;100.00
54389;BME280;40975;50.390;8.640;2024-03-06T06:42:50;99448.03;;;3.94;100.00
54389;BME280;40975;50.390;8.640;2024-03-06T06:45:16;99449.13;;;4.04;100.00
54389;BME280;40975;50.390;8.640;2024-03-06T06:47:43;99449.59;;;4.11;100.00
54389;BME280;40975;50.390;8.640;2024-03-06T06:50:09;99449.19;;;4.17;100.00
54389;BME280;40975;50.390;8.640;2024-03-06T06:52:35;99457.84;;;4.19;100.00
54389;BME280;40975;50.390;8.640;2024-03-06T06:55:01;99465.03;;;4.30;100.00
54389;BME280;40975;50.390;8.640;2024-03-06T06:57:26;99460.78;;;4.42;100.00
54389;BME280;40975;50.390;8.640;2024-03-06T06:59:51;99464.69;;;4.49;100.00
54389;BME280;40975;50.390;8.640;2024-03-06T07:02:17;99459.13;;;4.54;100.00
54389;BME280;40975;50.390;8.640;2024-03-06T07:04:42;99474.13;;;4.66;100.00
54389;BME280;40975;50.390;8.640;2024-03-06T07:07:08;99466.75;;;4.71;100.00
54389;BME280;40975;50.390;8.640;2024-03-06T07:09:33;99469.94;;;4.76;100.00
54389;BME280;40975;50.390;8.640;2024-03-06T07:11:59;99471.84;;;4.87;100.00
54389;BME280;40975;50.390;8.640;2024-03-06T07:14:25;99474.47;;;4.87;100.00
54389;BME280;40975;50.390;8.640;2024-03-06T07:16:50;99477.38;;;4.97;100.00
54389;BME280;40975;50.390;8.640;2024-03-06T07:19:15;99482.31;;;5.02;100.00
54389;BME280;40975;50.390;8.640;2024-03-06T07:21:42;99474.94;;;5.07;100.00
54389;BME280;40975;50.390;8.640;2024-03-06T07:24:07;99480.03;;;5.23;100.00
54389;BME280;40975;50.390;8.640;2024-03-06T07:26:33;99466.97;;;5.34;100.00
54389;BME280;40975;50.390;8.640;2024-03-06T07:28:58;99471.81;;;5.40;100.00
54389;BME280;40975;50.390;8.640;2024-03-06T07:31:24;99466.91;;;5.49;100.00
54389;BME280;40975;50.390;8.640;2024-03-06T07:33:50;99472.78;;;5.65;100.00
54389;BME280;40975;50.390;8.640;2024-03-06T07:36:15;99472.41;;;5.96;100.00
54389;BME280;40975;50.390;8.640;2024-03-06T07:38:42;99467.53;;;6.15;100.00
54389;BME280;40975;50.390;8.640;2024-03-06T07:41:07;99478.97;;;6.40;100.00
54389;BME280;40975;50.390;8.640;2024-03-06T07:43:32;99484.84;;;6.44;100.00
54389;BME280;40975;50.390;8.640;2024-03-06T07:45:58;99485.25;;;6.50;100.00
54389;BME280;40975;50.390;8.640;2024-03-06T07:48:24;99491.97;;;6.54;100.00
54389;BME280;40975;50.390;8.640;2024-03-06T07:50:49;99496.00;;;6.96;100.00
54389;BME280;40975;50.390;8.640;2024-03-06T07:53:14;99493.78;;;7.61;100.00
54389;BME280;40975;50.390;8.640;2024-03-06T07:55:41;99506.25;;;8.27;100.00
54389;BME280;40975;50.390;8.640;2024-03-06T07:58:06;99508.06;;;8.93;100.00
54389;BME280;40975;50.390;8.640;2024-03-06T08:00:33;99502.06;;;9.55;100.00
54389;BME280;40975;50.390;8.640;2024-03-06T08:02:59;99501.06;;;9.77;100.00
54389;BME280;40975;50.390;8.640;2024-03-06T08:05:26;99505.00;;;10.14;96.58
54389;BME280;40975;50.390;8.640;2024-03-06T08:07:51;99504.16;;;10.64;92.72
54389;BME280;40975;50.390;8.640;2024-03-06T08:10:17;99507.38;;;10.77;88.85
54389;BME280;40975;50.390;8.640;2024-03-06T08:12:44;99515.59;;;10.54;91.19
54389;BME280;40975;50.390;8.640;2024-03-06T08:15:12;99523.72;;;10.63;90.15
54389;BME280;40975;50.390;8.640;2024-03-06T08:17:38;99532.25;;;10.66;90.28
54389;BME280;40975;50.390;8.640;2024-03-06T08:20:05;99536.16;;;10.21;91.81
54389;BME280;40975;50.390;8.640;2024-03-06T08:22:34;99546.69;;;10.02;96.60
54389;BME280;40975;50.390;8.640;2024-03-06T08:25:07;99545.47;;;9.85;97.05
54389;BME280;40975;50.390;8.640;2024-03-06T08:27:37;99548.13;;;9.42;98.69
54389;BME280;40975;50.390;8.640;2024-03-06T08:30:03;99552.72;;;9.19;100.00
54389;BME280;40975;50.390;8.640;2024-03-06T08:32:32;99553.00;;;9.37;100.00
54389;BME280;40975;50.390;8.640;2024-03-06T08:37:33;99556.34;;;9.82;99.99
54389;BME280;40975;50.390;8.640;2024-03-06T08:39:59;99556.22;;;9.83;96.75
54389;BME280;40975;50.390;8.640;2024-03-06T08:42:25;99565.22;;;10.73;95.75
54389;BME280;40975;50.390;8.640;2024-03-06T08:44:50;99560.50;;;11.36;91.88
54389;BME280;40975;50.390;8.640;2024-03-06T08:47:16;99563.38;;;11.82;88.57
54389;BME280;40975;50.390;8.640;2024-03-06T08:49:42;99559.81;;;11.44;86.20
54389;BME280;40975;50.390;8.640;2024-03-06T08:52:07;99558.91;;;10.65;87.26
54389;BME280;40975;50.390;8.640;2024-03-06T08:54:34;99567.13;;;10.52;91.19
54389;BME280;40975;50.390;8.640;2024-03-06T08:57:00;99575.97;;;10.62;91.56
54389;BME280;40975;50.390;8.640;2024-03-06T08:59:25;99577.19;;;10.48;91.35
54389;BME280;40975;50.390;8.640;2024-03-06T09:01:54;99577.50;;;10.34;92.14
54389;BME280;40975;50.390;8.640;2024-03-06T09:04:19;99586.47;;;9.80;95.79
54389;BME280;40975;50.390;8.640;2024-03-06T09:06:45;99589.84;;;9.29;100.00
54389;BME280;40975;50.390;8.640;2024-03-06T09:09:10;99607.19;;;9.00;100.00
54389;BME280;40975;50.390;8.640;2024-03-06T09:11:35;99601.16;;;8.98;100.00
54389;BME280;40975;50.390;8.640;2024-03-06T09:14:01;99610.84;;;9.21;100.00
54389;BME280;40975;50.390;8.640;2024-03-06T09:16:26;99607.34;;;8.88;100.00
54389;BME280;40975;50.390;8.640;2024-03-06T09:18:52;99612.38;;;8.79;100.00
54389;BME280;40975;50.390;8.640;2024-03-06T09:21:18;99614.00;;;8.48;100.00
54389;BME280;40975;50.390;8.640;2024-03-06T09:23:45;99620.09;;;8.25;100.00
54389;BME280;40975;50.390;8.640;2024-03-06T09:26:10;99623.09;;;8.21;100.00
54389;BME280;40975;50.390;8.640;2024-03-06T09:28:35;99624.19;;;8.18;100.00
54389;BME280;40975;50.390;8.640;2024-03-06T09:31:00;99615.97;;;7.99;100.00
54389;BME280;40975;50.390;8.640;2024-03-06T09:33:26;99622.84;;;8.01;100.00
54389;BME280;40975;50.390;8.640;2024-03-06T09:35:51;99619.50;;;8.22;100.00
54389;BME280;40975;50.390;8.640;2024-03-06T09:38:17;99617.81;;;8.55;100.00
54389;BME280;40975;50.390;8.640;2024-03-06T09:40:42;99612.91;;;8.50;100.00
54389;BME280;40975;50.390;8.640;2024-03-06T09:43:07;99615.03;;;8.34;100.00
54389;BME280;40975;50.390;8.640;2024-03-06T09:45:34;99615.78;;;8.36;100.00
54389;BME280;40975;50.390;8.640;2024-03-06T09:47:59;99607.25;;;8.32;100.00
54389;BME280;40975;50.390;8.640;2024-03-06T09:50:24;99618.78;;;8.43;100.00
54389;BME280;40975;50.390;8.640;2024-03-06T09:52:55;99610.16;;;8.63;100.00
54389;BME280;40975;50.390;8.640;2024-03-06T09:55:21;99603.25;;;8.72;100.00
54389;BME280;40975;50.390;8.640;2024-03-06T09:57:46;99607.34;;;8.88;100.00
54389;BME280;40975;50.390;8.640;2024-03-06T10:00:11;99609.13;;;8.87;100.00
54389;BME280;40975;50.390;8.640;2024-03-06T10:02:52;99610.34;;;8.83;100.00
54389;BME280;40975;50.390;8.640;2024-03-06T10:05:23;99619.25;;;8.93;100.00
54389;BME280;40975;50.390;8.640;2024-03-06T10:07:52;99614.22;;;9.11;100.00
54389;BME280;40975;50.390;8.640;2024-03-06T10:10:19;99616.22;;;9.30;100.00
54389;BME280;40975;50.390;8.640;2024-03-06T10:12:45;99615.59;;;9.38;100.00
54389;BME280;40975;50.390;8.640;2024-03-06T10:15:13;99615.38;;;9.62;100.00
54389;BME280;40975;50.390;8.640;2024-03-06T10:17:38;99621.06;;;9.58;100.00
54389;BME280;40975;50.390;8.640;2024-03-06T10:20:23;99617.50;;;9.69;100.00
54389;BME280;40975;50.390;8.640;2024-03-06T10:22:53;99615.63;;;10.02;99.53
54389;BME280;40975;50.390;8.640;2024-03-06T10:25:19;99613.66;;;10.04;97.84
54389;BME280;40975;50.390;8.640;2024-03-06T10:27:46;99609.63;;;10.31;96.58
54389;BME280;40975;50.390;8.640;2024-03-06T10:30:12;99617.63;;;10.40;96.25
54389;BME280;40975;50.390;8.640;2024-03-06T10:32:41;99609.44;;;10.53;91.91
54389;BME280;40975;50.390;8.640;2024-03-06T10:35:17;99611.91;;;10.76;91.47
54389;BME280;40975;50.390;8.640;2024-03-06T10:37:45;99617.97;;;10.98;91.61
54389;BME280;40975;50.390;8.640;2024-03-06T10:40:14;99614.66;;;11.25;89.26
54389;BME280;40975;50.390;8.640;2024-03-06T10:42:40;99609.72;;;11.11;87.37
54389;BME280;40975;50.390;8.640;2024-03-06T10:45:07;99607.63;;;11.14;84.80
54389;BME280;40975;50.390;8.640;2024-03-06T10:47:36;99606.78;;;11.04;86.27
54389;BME280;40975;50.390;8.640;2024-03-06T10:50:03;99612.00;;;11.25;87.01
54389;BME280;40975;50.390;8.640;2024-03-06T10:52:32;99596.75;;;11.47;84.06
54389;BME280;40975;50.390;8.640;2024-03-06T10:54:59;99593.31;;;11.94;80.62
54389;BME280;40975;50.390;8.640;2024-03-06T10:57:25;99597.81;;;12.41;81.30
54389;BME280;40975;50.390;8.640;2024-03-06T10:59:52;99599.00;;;12.56;77.51
54389;BME280;40975;50.390;8.640;2024-03-06T11:02:18;99593.97;;;12.81;76.09
54389;BME280;40975;50.390;8.640;2024-03-06T11:04:44;99592.03;;;12.73;75.46
54389;BME280;40975;50.390;8.640;2024-03-06T11:07:10;99599.00;;;13.20;74.93
54389;BME280;40975;50.390;8.640;2024-03-06T11:09:36;99603.84;;;13.35;72.50
54389;BME280;40975;50.390;8.640;2024-03-06T11:12:04;99597.41;;;13.28;73.01
54389;BME280;40975;50.390;8.640;2024-03-06T11:14:32;99601.09;;;13.27;73.20
54389;BME280;40975;50.390;8.640;2024-03-06T11:17:03;99606.00;;;12.57;74.39
54389;BME280;40975;50.390;8.640;2024-03-06T11:19:32;99601.09;;;12.53;76.23
54389;BME280;40975;50.390;8.640;2024-03-06T11:21:58;99600.28;;;12.52;76.13
54389;BME280;40975;50.390;8.640;2024-03-06T11:24:31;99596.25;;;12.01;75.78
54389;BME280;40975;50.390;8.640;2024-03-06T11:27:01;99602.97;;;12.05;75.45
54389;BME280;40975;50.390;8.640;2024-03-06T11:29:28;99606.03;;;12.75;76.13
54389;BME280;40975;50.390;8.640;2024-03-06T11:32:20;99608.19;;;12.34;74.13
54389;BME280;40975;50.390;8.640;2024-03-06T11:34:47;99600.78;;;11.31;74.90
54389;BME280;40975;50.390;8.640;2024-03-06T11:37:12;99606.94;;;11.71;74.78
54389;BME280;40975;50.390;8.640;2024-03-06T11:39:39;99608.59;;;11.92;76.10
54389;BME280;40975;50.390;8.640;2024-03-06T11:42:06;99615.59;;;12.40;76.07
54389;BME280;40975;50.390;8.640;2024-03-06T11:44:34;99615.34;;;12.89;75.05
54389;BME280;40975;50.390;8.640;2024-03-06T11:47:03;99606.16;;;12.56;72.31
54389;BME280;40975;50.390;8.640;2024-03-06T11:49:33;99607.34;;;11.76;75.42
54389;BME280;40975;50.390;8.640;2024-03-06T11:52:07;99610.03;;;11.27;77.02
54389;BME280;40975;50.390;8.640;2024-03-06T11:54:33;99615.25;;;10.78;78.54
54389;BME280;40975;50.390;8.640;2024-03-06T11:57:01;99618.72;;;10.69;80.32
54389;BME280;40975;50.390;8.640;2024-03-06T11:59:34;99616.94;;;10.38;83.23
54389;BME280;40975;50.390;8.640;2024-03-06T12:02:04;99625.22;;;10.24;87.06
54389;BME280;40975;50.390;8.640;2024-03-06T12:04:31;99634.22;;;10.11;88.27
54389;BME280;40975;50.390;8.640;2024-03-06T12:06:57;99628.94;;;10.11;90.67
54389;BME280;40975;50.390;8.640;2024-03-06T12:09:25;99626.91;;;10.04;88.01
54389;BME280;40975;50.390;8.640;2024-03-06T12:11:50;99628.75;;;10.03;87.08
54389;BME280;40975;50.390;8.640;2024-03-06T12:14:17;99635.25;;;10.20;89.61
54389;BME280;40975;50.390;8.640;2024-03-06T12:16:54;99627.06;;;10.54;85.85
54389;BME280;40975;50.390;8.640;2024-03-06T12:19:19;99624.34;;;10.85;83.69
54389;BME280;40975;50.390;8.640;2024-03-06T12:21:47;99618.56;;;11.31;82.01
54389;BME280;40975;50.390;8.640;2024-03-06T12:24:15;99625.41;;;11.53;81.52
54389;BME280;40975;50.390;8.640;2024-03-06T12:26:41;99619.41;;;11.41;80.79
54389;BME280;40975;50.390;8.640;2024-03-06T12:29:11;99625.81;;;11.19;83.65
54389;BME280;40975;50.390;8.640;2024-03-06T12:31:41;99631.38;;;11.06;84.98
54389;BME280;40975;50.390;8.640;2024-03-06T12:34:07;99627.50;;;11.10;84.61
54389;BME280;40975;50.390;8.640;2024-03-06T12:36:34;99621.50;;;11.28;80.95
54389;BME280;40975;50.390;8.640;2024-03-06T12:39:00;99618.00;;;11.37;81.18
54389;BME280;40975;50.390;8.640;2024-03-06T12:41:27;99617.84;;;11.68;79.56
54389;BME280;40975;50.390;8.640;2024-03-06T12:43:53;99615.19;;;11.39;77.71
54389;BME280;40975;50.390;8.640;2024-03-06T12:46:19;99623.84;;;11.01;79.81
54389;BME280;40975;50.390;8.640;2024-03-06T12:48:45;99623.50;;;10.75;81.37
54389;BME280;40975;50.390;8.640;2024-03-06T12:51:10;99636.84;;;10.54;83.25
54389;BME280;40975;50.390;8.640;2024-03-06T12:53:36;99632.66;;;10.51;84.53
54389;BME280;40975;50.390;8.640;2024-03-06T12:56:01;99628.91;;;10.33;84.59
54389;BME280;40975;50.390;8.640;2024-03-06T12:58:27;99629.25;;;10.18;85.89